Terminal Aerodrome Forecast
Issued by NWS Des Moines, IA

Home | Current Version | Previous Version | Text Only | Print | Product List | Glossary On
Versions: 1 2 3 4 5 6 7 8 9 10 11 12 13 14 15 16 17 18 19 20 21 22 23 24 25 26 27 28 29 30 31 32 33 34 35 36 37 38 39 40 41 42 43 44 45 46 47 48
824
FTUS43 KDMX 261740 AAA
TAFDSM
TAF AMD
KDSM 261740Z 2618/2718 09007KT P6SM BKN070 OVC120
     FM262200 06006KT P6SM OVC040
     FM270000 05007KT P6SM VCTS OVC045CB
     FM270400 09006KT 5SM SHRA BR VCTS OVC015CB
     FM271000 14005KT P6SM BKN010
     FM271700 21007KT P6SM BKN015=

USA.gov is the U.S. government's official web portal to all federal, state and local government web resources and services.